sensor_id;sensor_type;location;lat;lon;timestamp;temperature;humidity
45549;DHT22;31270;48.328;10.096;2023-07-22T00:02:12;14.20;99.90
45549;DHT22;31270;48.328;10.096;2023-07-22T00:04:37;14.20;99.90
45549;DHT22;31270;48.328;10.096;2023-07-22T00:07:04;14.10;99.90
45549;DHT22;31270;48.328;10.096;2023-07-22T00:09:32;14.20;99.90
45549;DHT22;31270;48.328;10.096;2023-07-22T00:11:59;14.20;99.90
45549;DHT22;31270;48.328;10.096;2023-07-22T00:14:25;14.10;99.90
45549;DHT22;31270;48.328;10.096;2023-07-22T00:16:50;14.10;99.90
45549;DHT22;31270;48.328;10.096;2023-07-22T00:19:16;14.10;99.90
45549;DHT22;31270;48.328;10.096;2023-07-22T00:21:41;14.10;99.90
45549;DHT22;31270;48.328;10.096;2023-07-22T00:24:07;14.10;99.90
45549;DHT22;31270;48.328;10.096;2023-07-22T00:26:33;14.10;99.90
45549;DHT22;31270;48.328;10.096;2023-07-22T00:28:59;14.10;99.90
45549;DHT22;31270;48.328;10.096;2023-07-22T00:31:25;14.10;99.90
45549;DHT22;31270;48.328;10.096;2023-07-22T00:33:50;14.10;99.90
45549;DHT22;31270;48.328;10.096;2023-07-22T00:36:16;14.10;99.90
45549;DHT22;31270;48.328;10.096;2023-07-22T00:38:41;14.00;99.90
45549;DHT22;31270;48.328;10.096;2023-07-22T00:41:07;14.00;99.90
45549;DHT22;31270;48.328;10.096;2023-07-22T00:43:32;13.90;99.90
45549;DHT22;31270;48.328;10.096;2023-07-22T00:45:58;14.00;99.90
45549;DHT22;31270;48.328;10.096;2023-07-22T00:48:31;14.00;99.90
45549;DHT22;31270;48.328;10.096;2023-07-22T00:50:57;13.90;99.90
45549;DHT22;31270;48.328;10.096;2023-07-22T00:53:23;13.80;99.90
45549;DHT22;31270;48.328;10.096;2023-07-22T00:55:49;13.90;99.90
45549;DHT22;31270;48.328;10.096;2023-07-22T00:58:15;13.90;99.90
45549;DHT22;31270;48.328;10.096;2023-07-22T01:00:41;13.60;99.90
45549;DHT22;31270;48.328;10.096;2023-07-22T01:03:07;13.70;99.90
45549;DHT22;31270;48.328;10.096;2023-07-22T01:05:34;13.70;99.90
45549;DHT22;31270;48.328;10.096;2023-07-22T01:08:02;13.60;99.90
45549;DHT22;31270;48.328;10.096;2023-07-22T01:10:27;13.60;99.90
45549;DHT22;31270;48.328;10.096;2023-07-22T01:12:55;13.60;99.90
45549;DHT22;31270;48.328;10.096;2023-07-22T01:15:21;13.60;99.90
45549;DHT22;31270;48.328;10.096;2023-07-22T01:17:47;13.60;99.90
45549;DHT22;31270;48.328;10.096;2023-07-22T01:20:13;13.70;99.90
45549;DHT22;31270;48.328;10.096;2023-07-22T01:22:42;13.50;99.90
45549;DHT22;31270;48.328;10.096;2023-07-22T01:25:08;13.50;99.90
45549;DHT22;31270;48.328;10.096;2023-07-22T01:27:34;13.40;99.90
45549;DHT22;31270;48.328;10.096;2023-07-22T01:30:00;13.40;99.90
45549;DHT22;31270;48.328;10.096;2023-07-22T01:32:28;13.40;99.90
45549;DHT22;31270;48.328;10.096;2023-07-22T01:34:53;13.50;99.90
45549;DHT22;31270;48.328;10.096;2023-07-22T01:37:19;13.60;99.90
45549;DHT22;31270;48.328;10.096;2023-07-22T01:39:45;13.40;99.90
45549;DHT22;31270;48.328;10.096;2023-07-22T01:42:10;13.40;99.90
45549;DHT22;31270;48.328;10.096;2023-07-22T01:44:36;13.40;99.90
45549;DHT22;31270;48.328;10.096;2023-07-22T01:47:02;13.40;99.90
45549;DHT22;31270;48.328;10.096;2023-07-22T01:49:29;13.40;99.90
45549;DHT22;31270;48.328;10.096;2023-07-22T01:51:54;13.40;99.90
45549;DHT22;31270;48.328;10.096;2023-07-22T01:54:20;13.40;99.90
45549;DHT22;31270;48.328;10.096;2023-07-22T01:56:46;13.30;99.90
45549;DHT22;31270;48.328;10.096;2023-07-22T01:59:11;13.30;99.90
45549;DHT22;31270;48.328;10.096;2023-07-22T02:01:37;13.30;99.90
45549;DHT22;31270;48.328;10.096;2023-07-22T02:04:03;13.30;99.90
45549;DHT22;31270;48.328;10.096;2023-07-22T02:06:28;13.30;99.90
45549;DHT22;31270;48.328;10.096;2023-07-22T02:08:54;13.30;99.90
45549;DHT22;31270;48.328;10.096;2023-07-22T02:11:20;13.20;99.90
45549;DHT22;31270;48.328;10.096;2023-07-22T02:13:45;13.20;99.90
45549;DHT22;31270;48.328;10.096;2023-07-22T02:16:11;13.20;99.90
45549;DHT22;31270;48.328;10.096;2023-07-22T02:18:37;13.20;99.90
45549;DHT22;31270;48.328;10.096;2023-07-22T02:21:03;13.20;99.90
45549;DHT22;31270;48.328;10.096;2023-07-22T02:23:28;13.20;99.90
45549;DHT22;31270;48.328;10.096;2023-07-22T02:25:54;13.10;99.90
45549;DHT22;31270;48.328;10.096;2023-07-22T02:28:20;13.20;99.90
45549;DHT22;31270;48.328;10.096;2023-07-22T02:30:48;13.10;99.90
45549;DHT22;31270;48.328;10.096;2023-07-22T02:33:14;13.20;99.90
45549;DHT22;31270;48.328;10.096;2023-07-22T02:35:43;13.20;99.90
45549;DHT22;31270;48.328;10.096;2023-07-22T02:38:09;13.20;99.90
45549;DHT22;31270;48.328;10.096;2023-07-22T02:40:41;13.10;99.90
45549;DHT22;31270;48.328;10.096;2023-07-22T02:43:07;13.10;99.90
45549;DHT22;31270;48.328;10.096;2023-07-22T02:45:36;13.10;99.90
45549;DHT22;31270;48.328;10.096;2023-07-22T02:48:02;13.00;99.90
45549;DHT22;31270;48.328;10.096;2023-07-22T02:50:28;13.10;99.90
45549;DHT22;31270;48.328;10.096;2023-07-22T02:52:53;13.10;99.90
45549;DHT22;31270;48.328;10.096;2023-07-22T02:55:19;13.10;99.90
45549;DHT22;31270;48.328;10.096;2023-07-22T02:57:45;13.20;99.90
45549;DHT22;31270;48.328;10.096;2023-07-22T03:00:12;13.10;99.90
45549;DHT22;31270;48.328;10.096;2023-07-22T03:02:39;13.10;99.90
45549;DHT22;31270;48.328;10.096;2023-07-22T03:05:08;13.10;99.90
45549;DHT22;31270;48.328;10.096;2023-07-22T03:07:35;13.10;99.90
45549;DHT22;31270;48.328;10.096;2023-07-22T03:10:00;13.10;99.90
45549;DHT22;31270;48.328;10.096;2023-07-22T03:12:26;13.10;99.90
45549;DHT22;31270;48.328;10.096;2023-07-22T03:14:52;13.10;99.90
45549;DHT22;31270;48.328;10.096;2023-07-22T03:17:18;13.00;99.90
45549;DHT22;31270;48.328;10.096;2023-07-22T03:19:44;13.00;99.90
45549;DHT22;31270;48.328;10.096;2023-07-22T03:22:13;13.10;99.90
45549;DHT22;31270;48.328;10.096;2023-07-22T03:24:39;13.10;99.90
45549;DHT22;31270;48.328;10.096;2023-07-22T03:27:05;13.10;99.90
45549;DHT22;31270;48.328;10.096;2023-07-22T03:29:32;13.10;99.90
45549;DHT22;31270;48.328;10.096;2023-07-22T03:31:57;13.00;99.90
45549;DHT22;31270;48.328;10.096;2023-07-22T03:34:26;13.10;99.90
45549;DHT22;31270;48.328;10.096;2023-07-22T03:36:52;13.10;99.90
45549;DHT22;31270;48.328;10.096;2023-07-22T03:39:17;13.00;99.90
45549;DHT22;31270;48.328;10.096;2023-07-22T03:41:43;13.10;99.90
45549;DHT22;31270;48.328;10.096;2023-07-22T03:44:08;13.10;99.90
45549;DHT22;31270;48.328;10.096;2023-07-22T03:46:34;13.10;99.90
45549;DHT22;31270;48.328;10.096;2023-07-22T03:49:00;13.00;99.90
45549;DHT22;31270;48.328;10.096;2023-07-22T03:51:26;13.10;99.90
45549;DHT22;31270;48.328;10.096;2023-07-22T03:53:51;13.10;99.90
45549;DHT22;31270;48.328;10.096;2023-07-22T03:56:17;13.10;99.90
45549;DHT22;31270;48.328;10.096;2023-07-22T03:58:45;13.10;99.90
45549;DHT22;31270;48.328;10.096;2023-07-22T04:01:12;13.10;99.90
45549;DHT22;31270;48.328;10.096;2023-07-22T04:03:38;12.90;99.90
45549;DHT22;31270;48.328;10.096;2023-07-22T04:06:04;13.00;99.90
45549;DHT22;31270;48.328;10.096;2023-07-22T04:08:31;13.10;99.90
45549;DHT22;31270;48.328;10.096;2023-07-22T04:10:57;12.90;99.90
45549;DHT22;31270;48.328;10.096;2023-07-22T04:13:25;13.00;99.90
45549;DHT22;31270;48.328;10.096;2023-07-22T04:15:53;12.90;99.90
45549;DHT22;31270;48.328;10.096;2023-07-22T04:18:20;12.90;99.90
45549;DHT22;31270;48.328;10.096;2023-07-22T04:20:47;13.00;99.90
45549;DHT22;31270;48.328;10.096;2023-07-22T04:23:16;13.00;99.90
45549;DHT22;31270;48.328;10.096;2023-07-22T04:25:44;13.10;99.90
45549;DHT22;31270;48.328;10.096;2023-07-22T04:28:11;13.10;99.90
45549;DHT22;31270;48.328;10.096;2023-07-22T04:30:37;13.10;99.90
45549;DHT22;31270;48.328;10.096;2023-07-22T04:33:03;13.10;99.90
45549;DHT22;31270;48.328;10.096;2023-07-22T04:35:37;13.30;99.90
45549;DHT22;31270;48.328;10.096;2023-07-22T04:38:03;13.30;99.90
45549;DHT22;31270;48.328;10.096;2023-07-22T04:40:30;13.40;99.90
45549;DHT22;31270;48.328;10.096;2023-07-22T04:42:56;13.50;99.90
45549;DHT22;31270;48.328;10.096;2023-07-22T04:45:22;13.40;99.90
45549;DHT22;31270;48.328;10.096;2023-07-22T04:47:50;13.50;99.90
45549;DHT22;31270;48.328;10.096;2023-07-22T04:50:17;13.60;99.90
45549;DHT22;31270;48.328;10.096;2023-07-22T04:52:45;13.60;99.90
45549;DHT22;31270;48.328;10.096;2023-07-22T04:55:11;13.60;99.90
45549;DHT22;31270;48.328;10.096;2023-07-22T04:57:41;13.60;99.90
45549;DHT22;31270;48.328;10.096;2023-07-22T05:00:08;13.70;99.90
45549;DHT22;31270;48.328;10.096;2023-07-22T05:02:41;13.70;99.90
45549;DHT22;31270;48.328;10.096;2023-07-22T05:05:09;13.80;99.90
45549;DHT22;31270;48.328;10.096;2023-07-22T05:07:35;14.00;99.90
45549;DHT22;31270;48.328;10.096;2023-07-22T05:10:02;14.20;99.90
45549;DHT22;31270;48.328;10.096;2023-07-22T05:12:28;14.20;99.90
45549;DHT22;31270;48.328;10.096;2023-07-22T05:14:54;14.30;99.90
45549;DHT22;31270;48.328;10.096;2023-07-22T05:17:19;14.40;99.90
45549;DHT22;31270;48.328;10.096;2023-07-22T05:19:45;14.50;99.90
45549;DHT22;31270;48.328;10.096;2023-07-22T05:22:11;14.60;99.90
45549;DHT22;31270;48.328;10.096;2023-07-22T05:24:36;14.80;99.90
45549;DHT22;31270;48.328;10.096;2023-07-22T05:27:02;14.90;99.90
45549;DHT22;31270;48.328;10.096;2023-07-22T05:29:28;15.00;99.90
45549;DHT22;31270;48.328;10.096;2023-07-22T05:32:06;15.20;99.90
45549;DHT22;31270;48.328;10.096;2023-07-22T05:34:44;15.30;99.90
45549;DHT22;31270;48.328;10.096;2023-07-22T05:37:10;15.40;99.90
45549;DHT22;31270;48.328;10.096;2023-07-22T05:39:35;15.40;99.90
45549;DHT22;31270;48.328;10.096;2023-07-22T05:42:01;15.50;99.90
45549;DHT22;31270;48.328;10.096;2023-07-22T05:44:30;15.70;99.90
45549;DHT22;31270;48.328;10.096;2023-07-22T05:47:02;16.00;99.90
45549;DHT22;31270;48.328;10.096;2023-07-22T05:49:28;15.90;99.90
45549;DHT22;31270;48.328;10.096;2023-07-22T05:51:55;16.00;99.90
45549;DHT22;31270;48.328;10.096;2023-07-22T05:54:21;16.10;99.90
45549;DHT22;31270;48.328;10.096;2023-07-22T05:56:47;16.30;99.90
45549;DHT22;31270;48.328;10.096;2023-07-22T05:59:12;16.50;99.90
45549;DHT22;31270;48.328;10.096;2023-07-22T06:01:38;16.70;99.90
45549;DHT22;31270;48.328;10.096;2023-07-22T06:04:04;16.80;99.90
45549;DHT22;31270;48.328;10.096;2023-07-22T06:06:30;17.10;99.90
45549;DHT22;31270;48.328;10.096;2023-07-22T06:08:56;17.10;99.90
45549;DHT22;31270;48.328;10.096;2023-07-22T06:11:21;17.20;99.90
45549;DHT22;31270;48.328;10.096;2023-07-22T06:13:47;17.40;99.90
45549;DHT22;31270;48.328;10.096;2023-07-22T06:16:13;17.50;99.90
45549;DHT22;31270;48.328;10.096;2023-07-22T06:18:39;17.60;99.90
45549;DHT22;31270;48.328;10.096;2023-07-22T06:21:04;17.80;99.90
45549;DHT22;31270;48.328;10.096;2023-07-22T06:23:30;18.00;99.90
45549;DHT22;31270;48.328;10.096;2023-07-22T06:25:56;18.20;99.90
45549;DHT22;31270;48.328;10.096;2023-07-22T06:28:21;18.20;99.90
45549;DHT22;31270;48.328;10.096;2023-07-22T06:30:47;18.30;99.90
45549;DHT22;31270;48.328;10.096;2023-07-22T06:33:13;18.70;99.90
45549;DHT22;31270;48.328;10.096;2023-07-22T06:35:38;18.90;99.90
45549;DHT22;31270;48.328;10.096;2023-07-22T06:38:04;18.80;99.90
45549;DHT22;31270;48.328;10.096;2023-07-22T06:40:29;19.00;99.90
45549;DHT22;31270;48.328;10.096;2023-07-22T06:42:55;19.20;99.90
45549;DHT22;31270;48.328;10.096;2023-07-22T06:45:21;19.30;99.90
45549;DHT22;31270;48.328;10.096;2023-07-22T06:47:46;19.20;99.90
45549;DHT22;31270;48.328;10.096;2023-07-22T06:50:12;19.40;99.90
45549;DHT22;31270;48.328;10.096;2023-07-22T06:52:38;19.60;99.90
45549;DHT22;31270;48.328;10.096;2023-07-22T06:55:04;19.80;99.90
45549;DHT22;31270;48.328;10.096;2023-07-22T06:57:30;20.00;99.90
45549;DHT22;31270;48.328;10.096;2023-07-22T06:59:56;20.10;99.90
45549;DHT22;31270;48.328;10.096;2023-07-22T07:02:22;20.50;99.90
45549;DHT22;31270;48.328;10.096;2023-07-22T07:04:48;20.70;99.90
45549;DHT22;31270;48.328;10.096;2023-07-22T07:07:15;20.80;99.90
45549;DHT22;31270;48.328;10.096;2023-07-22T07:09:41;20.90;99.90
45549;DHT22;31270;48.328;10.096;2023-07-22T07:12:08;21.10;99.90
45549;DHT22;31270;48.328;10.096;2023-07-22T07:14:34;21.30;99.90
45549;DHT22;31270;48.328;10.096;2023-07-22T07:17:00;21.40;99.90
45549;DHT22;31270;48.328;10.096;2023-07-22T07:19:26;21.60;99.90
45549;DHT22;31270;48.328;10.096;2023-07-22T07:21:52;21.60;99.90
45549;DHT22;31270;48.328;10.096;2023-07-22T07:24:18;21.80;99.90
45549;DHT22;31270;48.328;10.096;2023-07-22T07:26:43;21.90;99.90
45549;DHT22;31270;48.328;10.096;2023-07-22T07:29:10;22.30;99.90
45549;DHT22;31270;48.328;10.096;2023-07-22T07:31:37;22.40;99.90
45549;DHT22;31270;48.328;10.096;2023-07-22T07:34:02;22.70;99.90
45549;DHT22;31270;48.328;10.096;2023-07-22T07:36:28;22.90;99.90
45549;DHT22;31270;48.328;10.096;2023-07-22T07:38:54;23.20;99.90
45549;DHT22;31270;48.328;10.096;2023-07-22T07:41:19;23.20;99.90
45549;DHT22;31270;48.328;10.096;2023-07-22T07:43:45;23.20;99.90
45549;DHT22;31270;48.328;10.096;2023-07-22T07:46:18;23.50;99.90
45549;DHT22;31270;48.328;10.096;2023-07-22T07:48:47;23.60;99.90
45549;DHT22;31270;48.328;10.096;2023-07-22T07:51:14;23.80;99.90
45549;DHT22;31270;48.328;10.096;2023-07-22T07:53:46;24.00;99.90
45549;DHT22;31270;48.328;10.096;2023-07-22T07:56:13;24.10;99.90
45549;DHT22;31270;48.328;10.096;2023-07-22T07:58:39;24.30;99.90
45549;DHT22;31270;48.328;10.096;2023-07-22T08:01:06;24.40;99.90
45549;DHT22;31270;48.328;10.096;2023-07-22T08:03:33;24.30;99.90
45549;DHT22;31270;48.328;10.096;2023-07-22T08:05:59;24.70;99.90
45549;DHT22;31270;48.328;10.096;2023-07-22T08:08:24;24.70;99.90
45549;DHT22;31270;48.328;10.096;2023-07-22T08:11:13;24.80;99.90
45549;DHT22;31270;48.328;10.096;2023-07-22T08:13:40;24.90;99.90
45549;DHT22;31270;48.328;10.096;2023-07-22T08:16:08;25.10;99.90
45549;DHT22;31270;48.328;10.096;2023-07-22T08:18:35;24.90;99.90
45549;DHT22;31270;48.328;10.096;2023-07-22T08:21:01;25.00;99.90
45549;DHT22;31270;48.328;10.096;2023-07-22T08:23:29;25.00;99.90
45549;DHT22;31270;48.328;10.096;2023-07-22T08:25:54;25.30;99.90
45549;DHT22;31270;48.328;10.096;2023-07-22T08:28:20;25.70;99.90
45549;DHT22;31270;48.328;10.096;2023-07-22T08:30:47;25.80;99.90
45549;DHT22;31270;48.328;10.096;2023-07-22T08:33:14;25.80;99.90
45549;DHT22;31270;48.328;10.096;2023-07-22T08:35:40;25.70;99.90
45549;DHT22;31270;48.328;10.096;2023-07-22T08:38:08;26.10;99.90
45549;DHT22;31270;48.328;10.096;2023-07-22T08:40:38;26.20;99.90
45549;DHT22;31270;48.328;10.096;2023-07-22T08:43:05;26.30;99.90
45549;DHT22;31270;48.328;10.096;2023-07-22T08:45:33;26.40;99.90
45549;DHT22;31270;48.328;10.096;2023-07-22T08:48:07;26.00;99.90
45549;DHT22;31270;48.328;10.096;2023-07-22T08:53:12;26.00;99.90
45549;DHT22;31270;48.328;10.096;2023-07-22T08:55:38;26.20;99.90
45549;DHT22;31270;48.328;10.096;2023-07-22T08:58:08;26.50;99.90
45549;DHT22;31270;48.328;10.096;2023-07-22T09:00:35;26.80;99.90
45549;DHT22;31270;48.328;10.096;2023-07-22T09:03:04;26.80;99.90
45549;DHT22;31270;48.328;10.096;2023-07-22T09:05:31;26.60;98.60
45549;DHT22;31270;48.328;10.096;2023-07-22T09:07:58;26.60;99.00
45549;DHT22;31270;48.328;10.096;2023-07-22T09:10:26;26.90;99.90
45549;DHT22;31270;48.328;10.096;2023-07-22T09:12:52;27.10;99.90
45549;DHT22;31270;48.328;10.096;2023-07-22T09:15:18;27.10;99.60
45549;DHT22;31270;48.328;10.096;2023-07-22T09:17:44;26.90;98.60
45549;DHT22;31270;48.328;10.096;2023-07-22T09:20:12;26.90;97.90
45549;DHT22;31270;48.328;10.096;2023-07-22T09:22:43;26.70;97.90
45549;DHT22;31270;48.328;10.096;2023-07-22T09:25:17;26.60;97.90
45549;DHT22;31270;48.328;10.096;2023-07-22T09:27:44;26.90;98.70
45549;DHT22;31270;48.328;10.096;2023-07-22T09:30:24;27.10;97.70
45549;DHT22;31270;48.328;10.096;2023-07-22T09:32:51;27.20;96.60
45549;DHT22;31270;48.328;10.096;2023-07-22T09:35:18;27.20;94.30
45549;DHT22;31270;48.328;10.096;2023-07-22T09:37:44;27.00;95.10
45549;DHT22;31270;48.328;10.096;2023-07-22T09:40:17;27.20;96.40
45549;DHT22;31270;48.328;10.096;2023-07-22T09:42:48;27.30;96.30
45549;DHT22;31270;48.328;10.096;2023-07-22T09:45:14;27.40;96.10
45549;DHT22;31270;48.328;10.096;2023-07-22T09:47:44;27.50;96.60
45549;DHT22;31270;48.328;10.096;2023-07-22T09:50:14;27.60;97.10
45549;DHT22;31270;48.328;10.096;2023-07-22T09:52:46;27.80;96.30
45549;DHT22;31270;48.328;10.096;2023-07-22T09:55:14;28.00;94.70
45549;DHT22;31270;48.328;10.096;2023-07-22T09:57:46;27.90;93.80
45549;DHT22;31270;48.328;10.096;2023-07-22T10:00:13;27.90;94.00
45549;DHT22;31270;48.328;10.096;2023-07-22T10:02:49;28.10;93.80
45549;DHT22;31270;48.328;10.096;2023-07-22T10:05:19;28.00;93.80
45549;DHT22;31270;48.328;10.096;2023-07-22T10:08:04;27.80;92.60
45549;DHT22;31270;48.328;10.096;2023-07-22T10:10:35;27.90;93.30
45549;DHT22;31270;48.328;10.096;2023-07-22T10:13:03;28.20;92.00
45549;DHT22;31270;48.328;10.096;2023-07-22T10:15:31;28.30;92.50
45549;DHT22;31270;48.328;10.096;2023-07-22T10:18:00;28.60;93.10
45549;DHT22;31270;48.328;10.096;2023-07-22T10:20:26;29.00;93.40
45549;DHT22;31270;48.328;10.096;2023-07-22T10:22:51;28.70;91.20
45549;DHT22;31270;48.328;10.096;2023-07-22T10:25:18;28.30;91.00
45549;DHT22;31270;48.328;10.096;2023-07-22T10:27:46;27.60;91.00
45549;DHT22;31270;48.328;10.096;2023-07-22T10:30:14;27.20;91.80
45549;DHT22;31270;48.328;10.096;2023-07-22T10:32:45;26.70;91.10
45549;DHT22;31270;48.328;10.096;2023-07-22T10:35:14;26.60;92.10
45549;DHT22;31270;48.328;10.096;2023-07-22T10:37:45;26.60;91.40
45549;DHT22;31270;48.328;10.096;2023-07-22T10:43:06;26.20;92.80
45549;DHT22;31270;48.328;10.096;2023-07-22T10:45:35;26.30;92.50
45549;DHT22;31270;48.328;10.096;2023-07-22T10:48:12;26.90;95.10
45549;DHT22;31270;48.328;10.096;2023-07-22T10:50:51;27.20;93.40
45549;DHT22;31270;48.328;10.096;2023-07-22T10:56:18;27.00;93.60
45549;DHT22;31270;48.328;10.096;2023-07-22T11:11:57;27.40;94.40
45549;DHT22;31270;48.328;10.096;2023-07-22T11:14:24;27.60;94.30
45549;DHT22;31270;48.328;10.096;2023-07-22T11:16:50;27.90;96.50
45549;DHT22;31270;48.328;10.096;2023-07-22T11:19:21;28.50;95.70
45549;DHT22;31270;48.328;10.096;2023-07-22T11:21:49;28.60;92.80
45549;DHT22;31270;48.328;10.096;2023-07-22T11:24:15;28.30;91.40
45549;DHT22;31270;48.328;10.096;2023-07-22T11:26:41;27.70;93.00
45549;DHT22;31270;48.328;10.096;2023-07-22T11:29:08;27.50;93.60
45549;DHT22;31270;48.328;10.096;2023-07-22T11:31:39;27.60;93.40
45549;DHT22;31270;48.328;10.096;2023-07-22T11:34:09;27.40;94.00
45549;DHT22;31270;48.328;10.096;2023-07-22T11:36:34;27.90;92.30
45549;DHT22;31270;48.328;10.096;2023-07-22T11:39:08;28.00;92.40
45549;DHT22;31270;48.328;10.096;2023-07-22T11:41:34;28.10;92.20
45549;DHT22;31270;48.328;10.096;2023-07-22T11:44:04;28.50;93.50
45549;DHT22;31270;48.328;10.096;2023-07-22T11:47:01;29.00;91.20
45549;DHT22;31270;48.328;10.096;2023-07-22T11:49:29;28.70;92.90
45549;DHT22;31270;48.328;10.096;2023-07-22T11:54:35;28.40;94.20
45549;DHT22;31270;48.328;10.096;2023-07-22T11:57:19;28.70;93.20
45549;DHT22;31270;48.328;10.096;2023-07-22T11:59:46;28.90;92.70
45549;DHT22;31270;48.328;10.096;2023-07-22T12:02:17;29.40;93.40
45549;DHT22;31270;48.328;10.096;2023-07-22T12:05:00;29.40;91.40
45549;DHT22;31270;48.328;10.096;2023-07-22T12:07:28;29.70;90.80
45549;DHT22;31270;48.328;10.096;2023-07-22T12:09:56;29.70;91.30
45549;DHT22;31270;48.328;10.096;2023-07-22T12:12:30;30.10;92.10
45549;DHT22;31270;48.328;10.096;2023-07-22T12:15:08;30.40;91.50
45549;DHT22;31270;48.328;10.096;2023-07-22T12:20:19;30.30;87.90
45549;DHT22;31270;48.328;10.096;2023-07-22T12:22:48;30.20;90.00
45549;DHT22;31270;48.328;10.096;2023-07-22T12:25:20;30.20;90.40
45549;DHT22;31270;48.328;10.096;2023-07-22T12:27:46;30.20;91.90
45549;DHT22;31270;48.328;10.096;2023-07-22T12:30:11;30.20;90.20
45549;DHT22;31270;48.328;10.096;2023-07-22T12:32:38;30.40;90.60
45549;DHT22;31270;48.328;10.096;2023-07-22T12:35:04;30.50;90.10
45549;DHT22;31270;48.328;10.096;2023-07-22T12:37:30;30.70;90.70
45549;DHT22;31270;48.328;10.096;2023-07-22T12:39:56;30.40;89.40
45549;DHT22;31270;48.328;10.096;2023-07-22T12:42:22;30.30;89.90
45549;DHT22;31270;48.328;10.096;2023-07-22T12:44:48;30.40;90.50
45549;DHT22;31270;48.328;10.096;2023-07-22T12:47:13;30.90;89.70
45549;DHT22;31270;48.328;10.096;2023-07-22T12:49:39;31.10;89.30
45549;DHT22;31270;48.328;10.096;2023-07-22T12:52:05;30.80;82.50
45549;DHT22;31270;48.328;10.096;2023-07-22T12:54:34;30.90;89.70
45549;DHT22;31270;48.328;10.096;2023-07-22T12:57:00;30.80;85.20
45549;DHT22;31270;48.328;10.096;2023-07-22T12:59:26;31.30;90.50
45549;DHT22;31270;48.328;10.096;2023-07-22T13:01:52;31.10;89.30
45549;DHT22;31270;48.328;10.096;2023-07-22T13:04:17;30.70;86.60
45549;DHT22;31270;48.328;10.096;2023-07-22T13:06:43;31.00;87.90
45549;DHT22;31270;48.328;10.096;2023-07-22T13:09:08;31.20;86.60
45549;DHT22;31270;48.328;10.096;2023-07-22T13:11:35;31.30;88.50
45549;DHT22;31270;48.328;10.096;2023-07-22T13:14:01;31.10;86.60
45549;DHT22;31270;48.328;10.096;2023-07-22T13:16:27;30.70;84.40
45549;DHT22;31270;48.328;10.096;2023-07-22T13:18:52;31.10;87.30
45549;DHT22;31270;48.328;10.096;2023-07-22T13:21:18;31.20;84.10
45549;DHT22;31270;48.328;10.096;2023-07-22T13:23:44;31.20;86.00
45549;DHT22;31270;48.328;10.096;2023-07-22T13:26:09;31.10;83.70
45549;DHT22;31270;48.328;10.096;2023-07-22T13:28:35;30.90;82.10
45549;DHT22;31270;48.328;10.096;2023-07-22T13:31:00;30.60;83.30
45549;DHT22;31270;48.328;10.096;2023-07-22T13:33:26;30.70;84.50
45549;DHT22;31270;48.328;10.096;2023-07-22T13:35:51;30.60;83.80
45549;DHT22;31270;48.328;10.096;2023-07-22T13:38:17;30.00;82.50
45549;DHT22;31270;48.328;10.096;2023-07-22T13:40:43;30.10;85.30
45549;DHT22;31270;48.328;10.096;2023-07-22T13:43:08;30.40;86.10
45549;DHT22;31270;48.328;10.096;2023-07-22T13:45:35;30.40;83.10
45549;DHT22;31270;48.328;10.096;2023-07-22T13:48:00;30.40;87.70
45549;DHT22;31270;48.328;10.096;2023-07-22T13:50:26;30.30;84.70
45549;DHT22;31270;48.328;10.096;2023-07-22T13:52:51;30.50;83.70
45549;DHT22;31270;48.328;10.096;2023-07-22T13:55:17;30.40;83.80
45549;DHT22;31270;48.328;10.096;2023-07-22T13:57:43;30.30;81.80
45549;DHT22;31270;48.328;10.096;2023-07-22T14:00:09;30.10;86.80
45549;DHT22;31270;48.328;10.096;2023-07-22T14:02:36;29.80;80.60
45549;DHT22;31270;48.328;10.096;2023-07-22T14:05:03;29.40;82.90
45549;DHT22;31270;48.328;10.096;2023-07-22T14:07:28;29.60;85.20
45549;DHT22;31270;48.328;10.096;2023-07-22T14:09:54;29.90;85.20
45549;DHT22;31270;48.328;10.096;2023-07-22T14:12:20;29.70;84.40
45549;DHT22;31270;48.328;10.096;2023-07-22T14:14:46;29.80;84.20
45549;DHT22;31270;48.328;10.096;2023-07-22T14:17:12;29.80;84.80
45549;DHT22;31270;48.328;10.096;2023-07-22T14:19:37;29.90;84.20
45549;DHT22;31270;48.328;10.096;2023-07-22T14:22:03;29.70;85.00
45549;DHT22;31270;48.328;10.096;2023-07-22T14:24:29;29.70;85.60
45549;DHT22;31270;48.328;10.096;2023-07-22T14:26:55;29.80;87.10
45549;DHT22;31270;48.328;10.096;2023-07-22T14:29:21;29.90;84.60
45549;DHT22;31270;48.328;10.096;2023-07-22T14:31:47;30.00;83.10
45549;DHT22;31270;48.328;10.096;2023-07-22T14:34:12;29.70;83.90
45549;DHT22;31270;48.328;10.096;2023-07-22T14:36:38;29.70;83.20
45549;DHT22;31270;48.328;10.096;2023-07-22T14:39:04;29.80;86.30
45549;DHT22;31270;48.328;10.096;2023-07-22T14:41:30;29.70;83.10
45549;DHT22;31270;48.328;10.096;2023-07-22T14:43:56;29.50;82.70
45549;DHT22;31270;48.328;10.096;2023-07-22T14:46:22;29.70;83.60
45549;DHT22;31270;48.328;10.096;2023-07-22T14:48:48;29.40;82.70
45549;DHT22;31270;48.328;10.096;2023-07-22T14:51:13;29.30;83.20
45549;DHT22;31270;48.328;10.096;2023-07-22T14:53:39;29.40;84.30
45549;DHT22;31270;48.328;10.096;2023-07-22T14:56:05;29.20;80.80
45549;DHT22;31270;48.328;10.096;2023-07-22T14:58:32;29.00;79.80
45549;DHT22;31270;48.328;10.096;2023-07-22T15:00:58;28.90;80.90
45549;DHT22;31270;48.328;10.096;2023-07-22T15:03:23;28.60;81.40
45549;DHT22;31270;48.328;10.096;2023-07-22T15:05:49;28.80;82.20
45549;DHT22;31270;48.328;10.096;2023-07-22T15:08:14;28.70;81.50
45549;DHT22;31270;48.328;10.096;2023-07-22T15:10:40;28.60;80.40
45549;DHT22;31270;48.328;10.096;2023-07-22T15:13:06;28.60;81.70
45549;DHT22;31270;48.328;10.096;2023-07-22T15:15:31;28.30;80.90
45549;DHT22;31270;48.328;10.096;2023-07-22T15:17:57;28.20;80.90
45549;DHT22;31270;48.328;10.096;2023-07-22T15:20:23;28.40;83.10
45549;DHT22;31270;48.328;10.096;2023-07-22T15:22:49;28.50;82.20
45549;DHT22;31270;48.328;10.096;2023-07-22T15:25:14;28.50;82.00
45549;DHT22;31270;48.328;10.096;2023-07-22T15:27:40;28.40;81.90
45549;DHT22;31270;48.328;10.096;2023-07-22T15:30:07;28.00;81.30
45549;DHT22;31270;48.328;10.096;2023-07-22T15:32:34;27.70;80.10
45549;DHT22;31270;48.328;10.096;2023-07-22T15:34:59;27.50;80.60
45549;DHT22;31270;48.328;10.096;2023-07-22T15:37:25;27.40;80.10
45549;DHT22;31270;48.328;10.096;2023-07-22T15:39:50;27.40;80.80
45549;DHT22;31270;48.328;10.096;2023-07-22T15:42:16;27.20;81.60